createdAt,value
2019-05-20T00:00:42.234Z,13.80
2019-05-20T00:03:11.206Z,13.80
2019-05-20T00:05:40.245Z,13.80
2019-05-20T00:08:12.687Z,13.70
2019-05-20T00:10:51.310Z,13.80
2019-05-20T00:13:21.288Z,13.70
2019-05-20T00:15:50.745Z,13.70
2019-05-20T00:18:22.469Z,13.70
2019-05-20T00:20:51.477Z,13.70
2019-05-20T00:23:26.723Z,13.60
2019-05-20T00:25:55.639Z,13.60
2019-05-20T00:28:27.872Z,13.60
2019-05-20T00:31:00.167Z,13.50
2019-05-20T00:33:35.140Z,13.50
2019-05-20T00:36:04.246Z,13.60
2019-05-20T00:38:34.909Z,13.50
2019-05-20T00:41:04.283Z,13.50
2019-05-20T00:43:33.525Z,13.50
2019-05-20T00:46:02.822Z,13.40
2019-05-20T00:48:38.375Z,13.40
2019-05-20T00:51:08.598Z,13.40
2019-05-20T00:53:41.905Z,13.40
2019-05-20T00:56:36.211Z,13.40
2019-05-20T00:59:21.163Z,13.30
2019-05-20T01:01:50.399Z,13.30
2019-05-20T01:04:19.440Z,13.30
2019-05-20T01:06:48.602Z,13.10
2019-05-20T01:09:20.834Z,13.20
2019-05-20T01:11:50.134Z,13.20
2019-05-20T01:14:19.537Z,13.20
2019-05-20T01:20:21.310Z,13.10
2019-05-20T01:22:51.698Z,13.10
2019-05-20T01:26:02.599Z,13.00
2019-05-20T01:28:31.988Z,13.00
2019-05-20T01:31:09.514Z,13.00
2019-05-20T01:38:15.699Z,13.00
2019-05-20T01:40:46.857Z,12.90
2019-05-20T01:43:16.942Z,12.90
2019-05-20T01:45:52.423Z,12.90
2019-05-20T01:48:22.060Z,12.80
2019-05-20T01:50:53.202Z,12.80
2019-05-20T01:53:23.385Z,12.80
2019-05-20T01:56:06.073Z,12.80
2019-05-20T01:58:44.053Z,12.70
2019-05-20T02:01:17.744Z,12.70
2019-05-20T02:10:17.818Z,12.60
2019-05-20T02:12:50.463Z,12.60
2019-05-20T02:19:29.996Z,12.60
2019-05-20T02:22:21.016Z,12.60
2019-05-20T02:29:12.287Z,12.50
2019-05-20T02:31:42.189Z,12.40
2019-05-20T02:34:40.079Z,12.40
2019-05-20T02:37:19.130Z,12.40
2019-05-20T03:14:44.930Z,12.00
2019-05-20T03:17:29.520Z,12.00
2019-05-20T03:20:06.194Z,11.90
2019-05-20T03:25:48.348Z,11.90
2019-05-20T03:32:16.420Z,11.90
2019-05-20T03:34:58.779Z,11.90
2019-05-20T03:42:11.571Z,11.80
2019-05-20T04:13:05.545Z,11.50
2019-05-20T04:19:15.176Z,11.50
2019-05-20T04:25:58.264Z,11.50
2019-05-20T04:29:05.635Z,11.50
2019-05-20T04:45:12.223Z,11.60
2019-05-20T04:48:13.179Z,11.50
2019-05-20T04:54:07.957Z,11.70
2019-05-20T04:57:27.643Z,11.70
2019-05-20T05:03:57.479Z,11.70
2019-05-20T05:21:46.883Z,11.90
2019-05-20T05:47:36.525Z,12.00
2019-05-20T05:50:07.629Z,12.00
2019-05-20T05:52:36.864Z,12.00
2019-05-20T05:55:05.935Z,12.00
2019-05-20T05:57:34.950Z,12.00
2019-05-20T06:00:04.829Z,12.00
2019-05-20T06:02:33.740Z,11.90
2019-05-20T06:05:03.070Z,11.90
2019-05-20T06:07:32.308Z,11.90
2019-05-20T06:10:07.045Z,11.80
2019-05-20T06:12:36.041Z,11.80
2019-05-20T06:15:05.748Z,11.70
2019-05-20T06:17:40.983Z,11.70
2019-05-20T06:20:15.396Z,11.60
2019-05-20T06:22:47.623Z,11.60
2019-05-20T06:25:17.831Z,11.60
2019-05-20T06:27:46.882Z,11.60
2019-05-20T06:30:16.693Z,11.70
2019-05-20T06:32:46.123Z,11.80
2019-05-20T06:35:28.969Z,11.80
2019-05-20T06:37:59.670Z,11.90
2019-05-20T06:40:41.473Z,11.90
2019-05-20T06:43:13.590Z,12.00
2019-05-20T06:45:47.482Z,12.10
2019-05-20T06:48:16.600Z,12.10
2019-05-20T06:50:51.959Z,12.20
2019-05-20T06:53:20.953Z,12.30
2019-05-20T06:55:50.081Z,12.50
2019-05-20T06:58:21.199Z,12.40
2019-05-20T07:00:50.287Z,12.50
2019-05-20T07:03:19.517Z,12.50
2019-05-20T07:05:49.591Z,12.50
2019-05-20T07:08:19.067Z,12.50
2019-05-20T07:10:48.538Z,12.50
2019-05-20T07:13:18.905Z,12.50
2019-05-20T07:15:50.402Z,12.60
2019-05-20T07:18:29.794Z,12.60
2019-05-20T07:20:59.309Z,12.70
2019-05-20T07:23:28.723Z,12.80
2019-05-20T07:25:57.679Z,12.90
2019-05-20T07:28:27.507Z,12.90
2019-05-20T07:30:56.485Z,12.80
2019-05-20T07:33:25.402Z,12.80
2019-05-20T07:35:54.683Z,12.90
2019-05-20T07:38:23.842Z,12.90
2019-05-20T07:40:52.962Z,13.00
2019-05-20T07:43:22.289Z,13.10
2019-05-20T07:45:51.753Z,13.20
2019-05-20T07:48:21.354Z,13.40
2019-05-20T07:50:51.105Z,13.60
2019-05-20T07:53:21.383Z,13.50
2019-05-20T07:56:05.532Z,13.60
2019-05-20T07:58:37.367Z,13.60
2019-05-20T08:01:06.835Z,13.50
2019-05-20T08:03:38.519Z,13.50
2019-05-20T08:06:07.302Z,13.40
2019-05-20T08:08:41.771Z,13.30
2019-05-20T08:11:09.877Z,13.50
2019-05-20T08:14:15.423Z,13.40
2019-05-20T08:16:19.886Z,13.60
2019-05-20T08:18:52.934Z,13.50
2019-05-20T08:21:38.641Z,13.60
2019-05-20T08:24:10.561Z,13.80
2019-05-20T08:26:43.287Z,13.90
2019-05-20T08:29:15.843Z,14.00
2019-05-20T08:31:48.574Z,14.10
2019-05-20T08:34:17.907Z,14.40
2019-05-20T08:36:47.465Z,14.60
2019-05-20T08:39:16.989Z,14.60
2019-05-20T08:41:47.819Z,14.80
2019-05-20T08:44:17.707Z,14.50
2019-05-20T08:46:46.850Z,14.30
2019-05-20T08:49:27.038Z,14.40
2019-05-20T08:51:56.357Z,14.20
2019-05-20T08:54:25.643Z,14.40
2019-05-20T08:56:55.626Z,14.30
2019-05-20T08:59:24.999Z,14.20
2019-05-20T09:01:53.955Z,14.50
2019-05-20T09:04:24.118Z,14.50
2019-05-20T09:06:53.599Z,14.40
2019-05-20T09:09:22.783Z,14.40
2019-05-20T09:11:52.102Z,14.60
2019-05-20T09:14:21.165Z,14.40
2019-05-20T09:16:50.357Z,14.60
2019-05-20T09:19:19.858Z,14.80
2019-05-20T09:21:49.192Z,14.90
2019-05-20T09:24:19.218Z,14.90
2019-05-20T09:26:48.484Z,15.10
2019-05-20T09:29:21.305Z,15.00
2019-05-20T09:31:53.536Z,15.10
2019-05-20T09:34:22.889Z,15.10
2019-05-20T09:36:52.243Z,15.10
2019-05-20T09:39:21.427Z,15.30
2019-05-20T09:41:50.598Z,15.30
2019-05-20T09:44:20.171Z,15.70
2019-05-20T09:46:49.211Z,15.80
2019-05-20T09:49:18.430Z,15.80
2019-05-20T09:51:47.534Z,15.80
2019-05-20T09:54:17.268Z,15.70
2019-05-20T09:56:46.678Z,15.70
2019-05-20T09:59:16.451Z,15.70
2019-05-20T10:01:45.966Z,15.90
2019-05-20T10:04:15.666Z,15.80
2019-05-20T10:06:45.236Z,16.30
2019-05-20T10:09:14.882Z,16.40
2019-05-20T10:11:44.208Z,16.30
2019-05-20T10:14:14.411Z,16.30
2019-05-20T10:17:18.599Z,16.00
2019-05-20T10:19:48.027Z,16.00
2019-05-20T10:22:18.122Z,16.20
2019-05-20T10:24:54.010Z,15.90
2019-05-20T10:27:23.780Z,15.70
2019-05-20T10:29:53.283Z,15.50
2019-05-20T10:32:23.058Z,15.30
2019-05-20T10:34:52.724Z,15.50
2019-05-20T10:37:22.312Z,15.80
2019-05-20T10:39:51.677Z,15.90
2019-05-20T10:42:26.805Z,15.90
2019-05-20T10:44:56.081Z,16.00
2019-05-20T10:47:25.349Z,16.00
2019-05-20T10:49:54.427Z,16.50
2019-05-20T10:52:23.569Z,17.20
2019-05-20T10:54:52.693Z,17.50
2019-05-20T10:57:21.716Z,17.30
2019-05-20T10:59:50.989Z,16.70
2019-05-20T11:02:20.168Z,16.50
2019-05-20T11:04:49.125Z,16.30
2019-05-20T11:07:24.233Z,16.30
2019-05-20T11:09:56.899Z,16.60
2019-05-20T11:12:26.028Z,16.50
2019-05-20T11:14:56.850Z,16.50
2019-05-20T11:17:26.181Z,16.20
2019-05-20T11:19:55.872Z,16.20
2019-05-20T11:22:24.907Z,16.30
2019-05-20T11:24:54.070Z,16.80
2019-05-20T11:27:23.819Z,16.80
2019-05-20T11:29:53.836Z,16.70
2019-05-20T11:32:22.874Z,16.60
2019-05-20T11:34:51.784Z,16.40
2019-05-20T11:37:24.960Z,16.10
2019-05-20T11:40:14.807Z,16.10
2019-05-20T11:42:46.656Z,16.00
2019-05-20T11:45:22.036Z,15.80
2019-05-20T11:48:32.233Z,15.80
2019-05-20T11:54:06.609Z,15.50
2019-05-20T11:56:36.270Z,15.60
2019-05-20T11:59:09.701Z,15.80
2019-05-20T12:01:40.863Z,15.40
2019-05-20T12:04:17.636Z,15.10
2019-05-20T12:07:22.731Z,15.10
2019-05-20T12:09:52.578Z,14.90
2019-05-20T12:12:26.483Z,14.80
2019-05-20T12:15:00.312Z,14.70
2019-05-20T12:17:36.878Z,14.70
2019-05-20T12:20:10.409Z,14.80
2019-05-20T12:22:38.795Z,14.70
2019-05-20T12:25:08.090Z,14.70
2019-05-20T12:27:37.689Z,14.60
2019-05-20T12:30:07.638Z,14.70
2019-05-20T12:32:40.418Z,14.60
2019-05-20T12:35:10.209Z,14.50
2019-05-20T12:37:40.208Z,14.50
2019-05-20T12:40:14.792Z,14.70
2019-05-20T12:42:47.036Z,14.60
2019-05-20T12:45:16.877Z,14.50
2019-05-20T12:47:46.250Z,14.40
2019-05-20T12:50:20.098Z,14.60
2019-05-20T12:52:49.742Z,14.60
2019-05-20T12:55:22.360Z,14.70
2019-05-20T12:58:00.063Z,14.80
2019-05-20T13:00:29.172Z,14.70
2019-05-20T13:03:00.663Z,14.60
2019-05-20T13:05:29.951Z,14.50
2019-05-20T13:07:59.408Z,14.40
2019-05-20T13:10:31.647Z,14.50
2019-05-20T13:13:00.403Z,14.40
2019-05-20T13:15:35.212Z,14.40
2019-05-20T13:18:03.904Z,14.50
2019-05-20T13:20:35.604Z,14.50
2019-05-20T13:23:10.433Z,14.50
2019-05-20T13:25:38.505Z,14.50
2019-05-20T13:28:07.427Z,14.40
2019-05-20T13:30:36.359Z,14.50
2019-05-20T13:33:05.372Z,14.40
2019-05-20T13:35:34.502Z,14.30
2019-05-20T13:38:03.828Z,14.30
2019-05-20T13:40:45.711Z,14.20
2019-05-20T13:43:03.432Z,14.20
2019-05-20T13:45:32.448Z,14.10
2019-05-20T13:48:02.360Z,14.20
2019-05-20T13:50:31.545Z,14.30
2019-05-20T13:53:00.761Z,14.30
2019-05-20T13:55:29.729Z,14.30
2019-05-20T13:58:00.214Z,14.30
2019-05-20T14:00:29.572Z,14.20
2019-05-20T14:02:58.651Z,14.10
2019-05-20T14:05:27.743Z,14.20
2019-05-20T14:07:57.181Z,14.20
2019-05-20T14:10:26.579Z,14.20
2019-05-20T14:12:55.453Z,14.20
2019-05-20T14:15:24.825Z,14.20
2019-05-20T14:17:53.746Z,14.20
2019-05-20T14:20:22.770Z,14.20
2019-05-20T14:22:51.884Z,14.40
2019-05-20T14:25:22.315Z,14.30
2019-05-20T14:27:52.596Z,14.40
2019-05-20T14:30:23.147Z,14.30
2019-05-20T14:32:52.107Z,14.10
2019-05-20T14:35:21.073Z,14.10
2019-05-20T14:37:50.115Z,14.10
2019-05-20T14:40:19.414Z,14.00
2019-05-20T14:42:49.061Z,14.00
2019-05-20T14:45:18.193Z,13.90
2019-05-20T14:47:47.621Z,13.90
2019-05-20T14:50:18.751Z,13.90
2019-05-20T14:52:48.540Z,13.90
2019-05-20T14:55:17.607Z,13.90
2019-05-20T14:57:46.592Z,13.80
2019-05-20T15:00:15.926Z,13.80
2019-05-20T15:02:44.867Z,13.80
2019-05-20T15:05:13.896Z,14.00
2019-05-20T15:07:42.914Z,13.90
2019-05-20T15:10:12.376Z,13.90
2019-05-20T15:12:41.740Z,13.80
2019-05-20T15:15:11.067Z,13.80
2019-05-20T15:17:45.393Z,13.80
2019-05-20T15:20:14.778Z,13.80
2019-05-20T15:22:43.955Z,13.70
2019-05-20T15:25:13.250Z,13.70
2019-05-20T15:27:42.341Z,13.70
2019-05-20T15:30:12.192Z,13.70
2019-05-20T15:32:44.768Z,13.70
2019-05-20T15:35:13.783Z,13.70
2019-05-20T15:37:43.091Z,13.70
2019-05-20T15:40:15.230Z,13.70
2019-05-20T15:42:44.220Z,13.70
2019-05-20T15:45:13.578Z,13.70
2019-05-20T15:47:42.684Z,13.80
2019-05-20T15:50:11.736Z,13.70
2019-05-20T15:52:40.762Z,13.70
2019-05-20T15:55:12.530Z,13.70
2019-05-20T15:57:46.527Z,13.70
2019-05-20T16:00:15.743Z,13.70
2019-05-20T16:02:44.940Z,13.80
2019-05-20T16:05:14.055Z,13.70
2019-05-20T16:07:45.888Z,13.60
2019-05-20T16:10:24.110Z,13.60
2019-05-20T16:12:53.219Z,13.60
2019-05-20T16:15:28.551Z,13.60
2019-05-20T16:17:57.691Z,13.60
2019-05-20T16:20:27.494Z,13.60
2019-05-20T16:22:56.679Z,13.70
2019-05-20T16:25:25.735Z,13.60
2019-05-20T16:27:54.802Z,13.60
2019-05-20T16:30:24.305Z,13.60
2019-05-20T16:32:53.343Z,13.70
2019-05-20T16:35:23.055Z,13.70
2019-05-20T16:37:52.073Z,13.60
2019-05-20T16:40:21.836Z,13.60
2019-05-20T16:42:54.465Z,13.60
2019-05-20T16:45:23.617Z,13.60
2019-05-20T16:47:55.324Z,13.60
2019-05-20T16:50:24.622Z,13.70
2019-05-20T16:52:55.026Z,13.70
2019-05-20T16:55:23.983Z,13.70
2019-05-20T16:57:53.071Z,13.70
2019-05-20T17:00:31.377Z,13.70
2019-05-20T17:02:52.922Z,13.70
2019-05-20T17:05:22.283Z,13.70
2019-05-20T17:07:51.330Z,13.70
2019-05-20T17:10:25.374Z,13.70
2019-05-20T17:13:01.294Z,13.70
2019-05-20T17:15:30.775Z,13.70
2019-05-20T17:17:59.908Z,13.70
2019-05-20T17:20:29.134Z,13.60
2019-05-20T17:22:58.351Z,13.70
2019-05-20T17:25:28.040Z,13.60
2019-05-20T17:27:57.163Z,13.60
2019-05-20T17:30:26.197Z,13.60
2019-05-20T17:32:55.379Z,13.50
2019-05-20T17:35:27.150Z,13.50
2019-05-20T17:37:57.649Z,13.60
2019-05-20T17:40:26.713Z,13.60
2019-05-20T17:42:58.859Z,13.60
2019-05-20T17:45:28.008Z,13.60
2019-05-20T17:47:57.070Z,13.60
2019-05-20T17:50:26.454Z,13.60
2019-05-20T17:52:57.745Z,13.60
2019-05-20T17:55:27.067Z,13.60
2019-05-20T17:57:59.499Z,13.50
2019-05-20T18:00:29.038Z,13.50
2019-05-20T18:03:07.857Z,13.40
2019-05-20T18:05:36.858Z,13.40
2019-05-20T18:08:06.374Z,13.40
2019-05-20T18:10:35.479Z,13.40
2019-05-20T18:13:07.454Z,13.40
2019-05-20T18:15:36.414Z,13.40
2019-05-20T18:18:07.059Z,13.40
2019-05-20T18:20:42.811Z,13.40
2019-05-20T18:23:11.890Z,13.40
2019-05-20T18:25:41.409Z,13.30
2019-05-20T18:28:10.502Z,13.30
2019-05-20T18:30:40.379Z,13.30
2019-05-20T18:33:37.471Z,13.30
2019-05-20T18:35:57.638Z,13.30
2019-05-20T18:38:27.254Z,13.30
2019-05-20T18:40:56.296Z,13.30
2019-05-20T18:43:28.244Z,13.30
2019-05-20T18:45:57.618Z,13.30
2019-05-20T18:48:27.302Z,13.30
2019-05-20T18:50:56.298Z,13.30
2019-05-20T18:53:25.325Z,13.30
2019-05-20T18:55:58.314Z,13.30
2019-05-20T18:58:27.571Z,13.30
2019-05-20T19:00:56.953Z,13.30
2019-05-20T19:03:26.926Z,13.30
2019-05-20T19:05:59.453Z,13.30
2019-05-20T19:08:31.648Z,13.30
2019-05-20T19:11:06.815Z,13.30
2019-05-20T19:13:35.983Z,13.30
2019-05-20T19:16:05.168Z,13.30
2019-05-20T19:18:37.408Z,13.30
2019-05-20T19:21:06.518Z,13.30
2019-05-20T19:23:35.619Z,13.30
2019-05-20T19:26:07.639Z,13.30
2019-05-20T19:28:37.013Z,13.30
2019-05-20T19:31:16.114Z,13.30
2019-05-20T19:34:19.552Z,13.30
2019-05-20T19:36:54.747Z,13.30
2019-05-20T19:39:24.386Z,13.30
2019-05-20T19:41:53.900Z,13.30
2019-05-20T19:44:23.717Z,13.20
2019-05-20T19:46:54.705Z,13.20
2019-05-20T19:49:25.025Z,13.20
2019-05-20T19:51:56.912Z,13.20
2019-05-20T19:54:32.503Z,13.20
2019-05-20T19:57:13.823Z,13.20
2019-05-20T19:59:43.434Z,13.20
2019-05-20T20:02:18.156Z,13.10
2019-05-20T20:05:50.674Z,13.10
2019-05-20T20:08:22.781Z,13.00
2019-05-20T20:10:52.890Z,13.00
2019-05-20T20:13:25.605Z,13.00
2019-05-20T20:15:55.023Z,13.00
2019-05-20T20:18:24.474Z,12.90
2019-05-20T20:20:53.658Z,12.80
2019-05-20T20:24:19.825Z,12.90
2019-05-20T20:26:49.510Z,12.90
2019-05-20T20:29:42.489Z,12.80
2019-05-20T20:32:14.986Z,12.80
2019-05-20T20:34:47.704Z,12.80
2019-05-20T20:37:26.154Z,12.80
2019-05-20T20:40:11.664Z,12.80
2019-05-20T20:42:55.847Z,12.70
2019-05-20T20:45:42.094Z,12.70
2019-05-20T20:48:16.727Z,12.60
2019-05-20T20:50:48.467Z,12.60
2019-05-20T20:53:30.517Z,12.60
2019-05-20T20:56:04.655Z,12.50
2019-05-20T20:58:34.238Z,12.50
2019-05-20T21:01:05.791Z,12.50
2019-05-20T21:03:35.240Z,12.50
2019-05-20T21:06:04.314Z,12.50
2019-05-20T21:08:33.579Z,12.50
2019-05-20T21:11:05.686Z,12.50
2019-05-20T21:13:37.686Z,12.50
2019-05-20T21:16:07.123Z,12.50
2019-05-20T21:18:36.394Z,12.50
2019-05-20T21:21:05.555Z,12.60
2019-05-20T21:23:37.909Z,12.50
2019-05-20T21:26:08.861Z,12.50
2019-05-20T21:28:37.768Z,12.50
2019-05-20T21:31:09.774Z,12.50
2019-05-20T21:33:42.901Z,12.50
2019-05-20T21:36:11.832Z,12.50
2019-05-20T21:38:46.900Z,12.50
2019-05-20T21:41:18.898Z,12.50
2019-05-20T21:43:51.388Z,12.50
2019-05-20T21:46:22.045Z,12.50
2019-05-20T21:48:51.213Z,12.50
2019-05-20T21:51:24.006Z,12.50
2019-05-20T21:54:02.316Z,12.50
2019-05-20T21:56:31.548Z,12.50
2019-05-20T21:59:03.472Z,12.50
2019-05-20T22:01:32.785Z,12.50
2019-05-20T22:04:01.882Z,12.50
2019-05-20T22:06:33.773Z,12.50
2019-05-20T22:09:12.880Z,12.50
2019-05-20T22:11:47.508Z,12.50
2019-05-20T22:14:16.667Z,12.50
2019-05-20T22:16:48.915Z,12.50
2019-05-20T22:19:21.323Z,12.50
2019-05-20T22:21:58.170Z,12.50
2019-05-20T22:24:30.079Z,12.40
2019-05-20T22:26:59.552Z,12.40
2019-05-20T22:29:28.955Z,12.40
2019-05-20T22:32:04.211Z,12.40
2019-05-20T22:34:33.780Z,12.40
2019-05-20T22:37:02.991Z,12.40
2019-05-20T22:39:32.056Z,12.40
2019-05-20T22:42:02.311Z,12.40
2019-05-20T22:44:36.192Z,12.30
2019-05-20T22:47:08.105Z,12.30
2019-05-20T22:49:37.717Z,12.30
2019-05-20T22:52:06.915Z,12.30
2019-05-20T22:54:36.009Z,12.30
2019-05-20T22:57:05.488Z,12.30
2019-05-20T22:59:34.591Z,12.30
2019-05-20T23:02:03.746Z,12.30
2019-05-20T23:04:32.837Z,12.30
2019-05-20T23:07:11.255Z,12.30
2019-05-20T23:09:40.297Z,12.30
2019-05-20T23:12:09.213Z,12.30
2019-05-20T23:14:38.470Z,12.30
2019-05-20T23:17:10.406Z,12.30
2019-05-20T23:19:41.987Z,12.30
2019-05-20T23:22:11.185Z,12.30
2019-05-20T23:24:40.187Z,12.30
2019-05-20T23:27:12.558Z,12.30
2019-05-20T23:29:41.741Z,12.30
2019-05-20T23:32:19.206Z,12.30
2019-05-20T23:34:48.462Z,12.30
2019-05-20T23:37:17.905Z,12.30
2019-05-20T23:39:47.166Z,12.30
2019-05-20T23:42:19.807Z,12.30
2019-05-20T23:44:49.540Z,12.30
2019-05-20T23:47:18.770Z,12.30
2019-05-20T23:49:47.870Z,12.20
2019-05-20T23:52:18.026Z,12.30
2019-05-20T23:54:47.365Z,12.30
2019-05-20T23:57:16.919Z,12.30
2019-05-20T23:59:45.903Z,12.20
